Time;durP1;ratioP1;P1;durP2;ratioP2;P2;SDS_P1;SDS_P2;PMS_P1;PMS_P2;Temp;Humidity;BMP_temperature;BMP_pressure;BME280_temperature;BME280_humidity;BME280_pressure;Samples;Min_cycle;Max_cycle;Signal;HPM_P1;HPM_P2
2022/08/30 00:03:03;;;;;;;;;;;19.30;95.50;;;;;;5035558;28;19924;-56
2022/08/30 00:05:29;;;;;;;;;;;19.30;95.60;;;;;;5053579;28;19913;-56
2022/08/30 00:07:54;;;;;;;;;;;19.40;95.80;;;;;;5055357;28;19954;-58
2022/08/30 00:10:20;;;;;;;;;;;19.40;95.70;;;;;;5055490;28;20315;-55
2022/08/30 00:12:47;;;;;;;;;;;19.50;95.70;;;;;;5054948;28;19924;-55
2022/08/30 00:15:13;;;;;;;;;;;19.50;95.50;;;;;;5055529;28;20007;-56
2022/08/30 00:17:39;;;;;;;;;;;19.40;95.30;;;;;;5055992;28;19913;-58
2022/08/30 00:20:06;;;;;;;;;;;19.40;95.20;;;;;;5048496;28;19913;-58
2022/08/30 00:22:32;;;;;;;;;;;19.30;95.50;;;;;;5054208;28;19924;-57
2022/08/30 00:24:59;;;;;;;;;;;19.30;95.60;;;;;;5055496;28;19913;-56
2022/08/30 00:27:28;;;;;;;;;;;19.20;95.50;;;;;;5055195;28;19939;-58
2022/08/30 00:29:54;;;;;;;;;;;19.20;95.00;;;;;;5052900;28;19966;-56
2022/08/30 00:32:20;;;;;;;;;;;19.10;94.90;;;;;;5054755;28;19960;-56
2022/08/30 00:34:47;;;;;;;;;;;18.90;95.40;;;;;;5055317;28;19923;-57
2022/08/30 00:37:13;;;;;;;;;;;18.80;95.50;;;;;;5055759;28;19928;-55
2022/08/30 00:39:38;;;;;;;;;;;18.80;95.20;;;;;;5041232;28;19936;-51
2022/08/30 00:42:04;;;;;;;;;;;18.80;95.30;;;;;;5046108;28;20412;-54
2022/08/30 00:44:29;;;;;;;;;;;18.80;95.40;;;;;;5054406;28;20237;-56
2022/08/30 00:46:55;;;;;;;;;;;18.70;95.60;;;;;;5055640;28;19930;-57
2022/08/30 00:49:20;;;;;;;;;;;18.70;95.80;;;;;;5055336;28;19917;-53
2022/08/30 00:51:46;;;;;;;;;;;18.60;95.60;;;;;;5055519;28;19917;-53
2022/08/30 00:54:12;;;;;;;;;;;18.60;95.50;;;;;;5055737;28;19924;-56
2022/08/30 00:56:38;;;;;;;;;;;18.70;95.40;;;;;;5055492;28;20373;-57
2022/08/30 00:59:04;;;;;;;;;;;18.70;95.30;;;;;;5055633;28;19913;-56
2022/08/30 01:01:31;;;;;;;;;;;18.90;95.20;;;;;;5054383;28;20389;-57
2022/08/30 01:03:57;;;;;;;;;;;18.90;95.00;;;;;;5054903;28;20011;-55
2022/08/30 01:06:24;;;;;;;;;;;18.90;94.90;;;;;;5055255;28;19952;-53
2022/08/30 01:08:50;;;;;;;;;;;18.80;95.10;;;;;;5052584;28;20261;-55
2022/08/30 01:11:20;;;;;;;;;;;18.80;95.50;;;;;;5053307;28;19908;-56
2022/08/30 01:13:46;;;;;;;;;;;18.70;95.70;;;;;;5054436;28;19909;-55
2022/08/30 01:16:12;;;;;;;;;;;18.70;95.40;;;;;;5054602;28;19923;-53
2022/08/30 01:18:38;;;;;;;;;;;18.60;95.40;;;;;;5054787;28;20011;-54
2022/08/30 01:21:07;;;;;;;;;;;18.50;95.10;;;;;;5054296;28;19963;-52
2022/08/30 01:23:36;;;;;;;;;;;18.40;95.20;;;;;;5054551;28;19921;-55
2022/08/30 01:26:04;;;;;;;;;;;18.40;95.30;;;;;;5054831;28;19917;-55
2022/08/30 01:28:30;;;;;;;;;;;18.40;95.20;;;;;;5054000;28;19913;-56
2022/08/30 01:30:56;;;;;;;;;;;18.30;95.70;;;;;;5054145;28;19917;-54
2022/08/30 01:33:22;;;;;;;;;;;18.40;95.60;;;;;;5054740;28;19923;-56
2022/08/30 01:35:48;;;;;;;;;;;18.40;95.60;;;;;;5055173;28;19913;-56
2022/08/30 01:38:15;;;;;;;;;;;18.40;95.70;;;;;;5053162;28;20049;-55
2022/08/30 01:40:40;;;;;;;;;;;18.50;95.60;;;;;;5054493;28;19955;-56
2022/08/30 01:43:06;;;;;;;;;;;18.60;95.50;;;;;;5053842;28;19952;-53
2022/08/30 01:45:32;;;;;;;;;;;18.60;95.30;;;;;;5054603;28;19939;-55
2022/08/30 01:47:57;;;;;;;;;;;18.60;95.20;;;;;;5053983;28;19913;-56
2022/08/30 01:50:23;;;;;;;;;;;18.50;95.30;;;;;;5053691;28;20019;-56
2022/08/30 01:52:49;;;;;;;;;;;18.50;95.40;;;;;;5053055;28;19955;-54
2022/08/30 01:55:14;;;;;;;;;;;18.30;95.90;;;;;;5054095;28;19921;-53
2022/08/30 01:57:40;;;;;;;;;;;18.30;95.90;;;;;;5053930;28;19952;-56
2022/08/30 02:00:07;;;;;;;;;;;18.30;95.80;;;;;;5053730;28;20285;-54
2022/08/30 02:02:32;;;;;;;;;;;18.20;96.20;;;;;;5052505;28;19917;-56
2022/08/30 02:04:58;;;;;;;;;;;18.10;96.30;;;;;;5055371;28;20467;-56
2022/08/30 02:07:24;;;;;;;;;;;18.10;96.40;;;;;;5047177;28;20403;-57
2022/08/30 02:09:50;;;;;;;;;;;18.10;96.30;;;;;;5055490;28;20328;-55
2022/08/30 02:12:16;;;;;;;;;;;18.10;96.60;;;;;;5058493;28;19923;-56
2022/08/30 02:14:41;;;;;;;;;;;18.20;96.30;;;;;;5062202;28;19913;-55
2022/08/30 02:17:08;;;;;;;;;;;18.20;96.30;;;;;;5062242;28;19916;-56
2022/08/30 02:19:33;;;;;;;;;;;18.20;96.30;;;;;;5061942;28;19912;-53
2022/08/30 02:21:59;;;;;;;;;;;18.30;96.10;;;;;;5061441;28;20262;-55
2022/08/30 02:24:24;;;;;;;;;;;18.10;96.20;;;;;;5059302;28;20280;-53
2022/08/30 02:26:52;;;;;;;;;;;18.20;95.90;;;;;;5060293;28;19915;-55
2022/08/30 02:29:18;;;;;;;;;;;17.90;96.50;;;;;;5057038;28;19960;-56
2022/08/30 02:31:43;;;;;;;;;;;17.80;97.40;;;;;;5052224;28;19939;-54
2022/08/30 02:34:09;;;;;;;;;;;17.70;97.70;;;;;;5052741;28;20416;-56
2022/08/30 02:36:35;;;;;;;;;;;17.70;97.90;;;;;;5053410;28;20012;-58
2022/08/30 02:39:01;;;;;;;;;;;17.80;97.70;;;;;;5053410;28;19917;-53
2022/08/30 02:41:26;;;;;;;;;;;17.80;97.80;;;;;;5052344;28;20567;-56
2022/08/30 02:43:57;;;;;;;;;;;18.00;97.70;;;;;;5052765;28;19990;-55
2022/08/30 02:46:22;;;;;;;;;;;18.00;97.40;;;;;;5053104;28;19913;-55
2022/08/30 02:48:48;;;;;;;;;;;18.00;97.50;;;;;;5036117;28;20331;-55
2022/08/30 02:51:13;;;;;;;;;;;17.90;97.40;;;;;;5052465;28;19927;-59
2022/08/30 02:53:40;;;;;;;;;;;17.90;97.40;;;;;;5050818;28;19996;-55
2022/08/30 02:56:06;;;;;;;;;;;17.80;97.70;;;;;;5052931;28;20142;-55
2022/08/30 02:58:32;;;;;;;;;;;17.70;97.80;;;;;;5052339;28;19912;-59
2022/08/30 03:00:57;;;;;;;;;;;17.60;98.10;;;;;;5052059;28;19917;-58
2022/08/30 03:03:23;;;;;;;;;;;17.50;98.10;;;;;;5051778;28;19927;-57
2022/08/30 03:05:49;;;;;;;;;;;17.30;98.90;;;;;;5052434;28;19913;-54
2022/08/30 03:08:14;;;;;;;;;;;17.40;99.20;;;;;;5052081;28;19927;-53
2022/08/30 03:10:40;;;;;;;;;;;17.30;99.20;;;;;;5052578;28;20769;-58
2022/08/30 03:13:08;;;;;;;;;;;17.30;99.30;;;;;;5051809;28;19912;-57
2022/08/30 03:15:34;;;;;;;;;;;17.30;99.50;;;;;;5052905;28;20023;-57
2022/08/30 03:18:01;;;;;;;;;;;17.20;99.60;;;;;;5052469;28;20428;-57
2022/08/30 03:20:26;;;;;;;;;;;17.20;99.80;;;;;;5052079;28;19917;-54
2022/08/30 03:22:52;;;;;;;;;;;17.20;99.80;;;;;;5051900;28;20257;-56
2022/08/30 03:25:19;;;;;;;;;;;17.20;99.90;;;;;;5053249;28;19920;-53
2022/08/30 03:27:45;;;;;;;;;;;17.20;99.90;;;;;;5052641;28;19920;-57
2022/08/30 03:30:11;;;;;;;;;;;17.20;99.90;;;;;;5050995;28;20137;-58
2022/08/30 03:32:37;;;;;;;;;;;17.10;99.90;;;;;;5051579;28;19919;-57
2022/08/30 03:35:03;;;;;;;;;;;17.20;99.90;;;;;;5055595;28;20278;-58
2022/08/30 03:37:29;;;;;;;;;;;17.20;99.90;;;;;;5056381;28;19917;-55
2022/08/30 03:39:54;;;;;;;;;;;17.10;99.90;;;;;;5056549;28;19913;-55
2022/08/30 03:42:20;;;;;;;;;;;17.10;99.90;;;;;;5054280;28;19916;-53
2022/08/30 03:44:45;;;;;;;;;;;17.10;99.90;;;;;;5054690;28;19936;-58
2022/08/30 03:47:11;;;;;;;;;;;17.20;99.90;;;;;;5054556;28;20345;-57
2022/08/30 03:49:37;;;;;;;;;;;17.10;99.90;;;;;;5055066;28;20380;-57
2022/08/30 03:52:02;;;;;;;;;;;17.10;99.90;;;;;;5055578;28;19970;-57
2022/08/30 03:54:28;;;;;;;;;;;17.00;99.90;;;;;;5054733;28;19917;-54
2022/08/30 03:56:53;;;;;;;;;;;17.00;99.90;;;;;;5055899;28;19964;-58
2022/08/30 03:59:19;;;;;;;;;;;17.00;99.90;;;;;;5054543;28;19924;-56
2022/08/30 04:01:46;;;;;;;;;;;16.90;99.90;;;;;;5046929;28;19913;-56
2022/08/30 04:04:12;;;;;;;;;;;17.00;99.90;;;;;;5035627;28;20273;-53
2022/08/30 04:06:37;;;;;;;;;;;16.90;99.90;;;;;;5036081;28;19913;-58
2022/08/30 04:09:03;;;;;;;;;;;16.90;99.90;;;;;;5055231;28;19928;-54
2022/08/30 04:11:28;;;;;;;;;;;16.80;99.90;;;;;;5054120;28;19916;-54
2022/08/30 04:13:55;;;;;;;;;;;16.80;99.90;;;;;;5054795;28;19917;-57
2022/08/30 04:16:22;;;;;;;;;;;16.80;99.90;;;;;;5055348;28;19913;-54
2022/08/30 04:18:47;;;;;;;;;;;16.80;99.90;;;;;;5054215;28;19916;-56
2022/08/30 04:21:14;;;;;;;;;;;16.80;99.90;;;;;;5054973;28;20019;-56
2022/08/30 04:23:40;;;;;;;;;;;16.70;99.90;;;;;;5055521;28;19952;-55
2022/08/30 04:26:06;;;;;;;;;;;16.70;99.90;;;;;;5055929;28;19966;-57
2022/08/30 04:28:33;;;;;;;;;;;16.60;99.90;;;;;;5055646;28;20003;-56
2022/08/30 04:31:00;;;;;;;;;;;16.60;99.90;;;;;;5055908;28;19909;-54
2022/08/30 04:33:26;;;;;;;;;;;16.70;99.90;;;;;;5053629;28;19986;-54
2022/08/30 04:35:51;;;;;;;;;;;16.80;99.90;;;;;;5055200;28;19913;-56
2022/08/30 04:38:17;;;;;;;;;;;16.80;99.90;;;;;;5056698;28;19924;-57
2022/08/30 04:40:44;;;;;;;;;;;16.90;99.90;;;;;;5054851;28;19939;-58
2022/08/30 04:43:11;;;;;;;;;;;16.90;99.90;;;;;;5054997;28;20007;-58
2022/08/30 04:45:38;;;;;;;;;;;17.00;99.90;;;;;;5053927;28;20262;-55
2022/08/30 04:48:04;;;;;;;;;;;17.00;99.90;;;;;;5054462;28;19948;-56
2022/08/30 04:50:30;;;;;;;;;;;17.00;99.90;;;;;;5053007;28;19952;-58
2022/08/30 04:52:55;;;;;;;;;;;17.00;99.90;;;;;;5054323;28;20358;-54
2022/08/30 04:55:23;;;;;;;;;;;17.10;99.90;;;;;;5055267;28;20340;-57
2022/08/30 04:57:49;;;;;;;;;;;17.10;99.90;;;;;;5054195;28;19931;-56
2022/08/30 05:00:15;;;;;;;;;;;17.10;99.90;;;;;;5054403;28;19916;-53
2022/08/30 05:02:41;;;;;;;;;;;17.10;99.90;;;;;;5054292;28;20277;-56
2022/08/30 05:07:51;;;;;;;;;;;17.10;99.90;;;;;;5054878;28;19952;-57
2022/08/30 05:10:17;;;;;;;;;;;17.10;99.90;;;;;;5052897;28;20377;-53
2022/08/30 05:12:42;;;;;;;;;;;17.10;99.90;;;;;;5052455;28;19921;-55
2022/08/30 05:15:08;;;;;;;;;;;17.00;99.90;;;;;;5054503;28;20373;-56
2022/08/30 05:17:35;;;;;;;;;;;17.10;99.90;;;;;;5052185;28;19921;-58
2022/08/30 05:20:01;;;;;;;;;;;17.00;99.90;;;;;;5052791;28;20568;-57
2022/08/30 05:22:27;;;;;;;;;;;16.90;99.90;;;;;;5053765;28;19952;-56
2022/08/30 05:24:52;;;;;;;;;;;16.90;99.90;;;;;;5054527;28;19921;-53
2022/08/30 05:27:18;;;;;;;;;;;17.00;99.90;;;;;;5053719;28;20002;-56
2022/08/30 05:29:44;;;;;;;;;;;17.10;99.90;;;;;;5055734;28;19920;-57
2022/08/30 05:32:09;;;;;;;;;;;17.20;99.90;;;;;;5053784;28;19962;-55
2022/08/30 05:34:35;;;;;;;;;;;17.30;99.90;;;;;;5054212;28;19916;-60
2022/08/30 05:37:01;;;;;;;;;;;17.10;99.90;;;;;;5055241;28;20023;-57
2022/08/30 05:39:27;;;;;;;;;;;17.00;99.90;;;;;;5054084;28;19917;-55
2022/08/30 05:41:56;;;;;;;;;;;16.90;99.90;;;;;;5053367;28;20337;-56
2022/08/30 05:44:22;;;;;;;;;;;17.00;99.90;;;;;;5054350;28;19916;-58
2022/08/30 05:46:48;;;;;;;;;;;16.80;99.90;;;;;;5054885;28;20037;-56
2022/08/30 05:49:13;;;;;;;;;;;16.80;99.90;;;;;;5054387;28;20292;-55
2022/08/30 05:51:39;;;;;;;;;;;16.80;99.90;;;;;;5054261;28;20316;-53
2022/08/30 05:54:05;;;;;;;;;;;16.70;99.90;;;;;;5054177;28;20331;-57
2022/08/30 05:56:32;;;;;;;;;;;16.50;99.90;;;;;;5052370;28;20365;-59
2022/08/30 05:58:58;;;;;;;;;;;16.40;99.90;;;;;;5054251;28;19917;-58
2022/08/30 06:01:28;;;;;;;;;;;16.40;99.90;;;;;;5051415;28;19921;-58
2022/08/30 06:03:54;;;;;;;;;;;16.50;99.90;;;;;;5045545;28;19918;-56
2022/08/30 06:06:20;;;;;;;;;;;16.60;99.90;;;;;;5034952;28;19947;-56
2022/08/30 06:08:47;;;;;;;;;;;16.50;99.90;;;;;;5049648;28;20265;-55
2022/08/30 06:11:13;;;;;;;;;;;16.60;99.90;;;;;;5052915;28;19913;-56
2022/08/30 06:13:39;;;;;;;;;;;16.50;99.90;;;;;;5053306;28;20003;-57
2022/08/30 06:16:05;;;;;;;;;;;16.50;99.90;;;;;;5054587;28;19944;-54
2022/08/30 06:18:30;;;;;;;;;;;16.60;99.90;;;;;;5052828;28;19909;-56
2022/08/30 06:20:56;;;;;;;;;;;16.60;99.90;;;;;;5053977;28;19917;-54
2022/08/30 06:23:21;;;;;;;;;;;16.60;99.90;;;;;;5035595;28;19920;-50
2022/08/30 06:25:47;;;;;;;;;;;16.60;99.90;;;;;;5040138;28;19917;-52
2022/08/30 06:28:13;;;;;;;;;;;16.70;99.90;;;;;;5053740;28;20433;-50
2022/08/30 06:30:40;;;;;;;;;;;16.90;99.90;;;;;;5051921;28;20380;-54
2022/08/30 06:33:06;;;;;;;;;;;17.10;99.90;;;;;;5038941;28;20007;-52
2022/08/30 06:35:31;;;;;;;;;;;17.30;99.90;;;;;;5034003;28;19948;-53
2022/08/30 06:37:57;;;;;;;;;;;17.60;99.90;;;;;;5033979;28;19944;-52
2022/08/30 06:40:23;;;;;;;;;;;17.60;99.90;;;;;;5045228;28;20422;-51
2022/08/30 06:42:50;;;;;;;;;;;17.50;99.90;;;;;;5053494;28;19913;-53
2022/08/30 06:45:16;;;;;;;;;;;17.60;99.90;;;;;;5052384;28;19921;-51
2022/08/30 06:47:42;;;;;;;;;;;17.60;99.90;;;;;;5041433;28;19975;-52
2022/08/30 06:50:08;;;;;;;;;;;17.70;99.90;;;;;;5033699;28;20271;-54
2022/08/30 06:52:34;;;;;;;;;;;17.70;99.90;;;;;;5040368;28;19917;-53
2022/08/30 06:54:59;;;;;;;;;;;17.60;99.90;;;;;;5052131;28;19940;-56
2022/08/30 06:57:25;;;;;;;;;;;17.60;99.90;;;;;;5053452;28;19917;-54
2022/08/30 06:59:57;;;;;;;;;;;17.40;99.90;;;;;;5052798;28;19913;-55
2022/08/30 07:02:23;;;;;;;;;;;17.40;99.90;;;;;;5053255;28;19913;-51
2022/08/30 07:04:49;;;;;;;;;;;17.50;99.90;;;;;;5052385;28;19920;-55
2022/08/30 07:07:15;;;;;;;;;;;17.60;99.90;;;;;;5051882;28;20407;-54
2022/08/30 07:09:42;;;;;;;;;;;17.70;99.90;;;;;;5052599;28;19917;-56
2022/08/30 07:12:11;;;;;;;;;;;17.70;99.90;;;;;;5052746;28;19935;-54
2022/08/30 07:14:37;;;;;;;;;;;17.70;99.90;;;;;;5054951;28;19908;-59
2022/08/30 07:18:49;;;;;;;;;;;17.90;99.90;;;;;;5056874;28;19962;-59
2022/08/30 07:19:48;;;;;;;;;;;18.00;99.90;;;;;;5055663;28;19913;-54
2022/08/30 07:22:14;;;;;;;;;;;18.20;99.90;;;;;;5052491;28;19919;-51
2022/08/30 07:24:39;;;;;;;;;;;18.20;99.90;;;;;;5052740;28;19965;-53
2022/08/30 07:27:05;;;;;;;;;;;18.50;99.90;;;;;;5051587;28;20084;-56
2022/08/30 07:29:30;;;;;;;;;;;18.40;99.90;;;;;;5051644;28;19919;-53
2022/08/30 07:31:56;;;;;;;;;;;18.30;99.90;;;;;;5055728;28;20082;-54
2022/08/30 07:34:22;;;;;;;;;;;18.20;99.90;;;;;;5058440;28;19913;-53
2022/08/30 07:36:47;;;;;;;;;;;18.00;99.90;;;;;;5056967;28;19936;-52
2022/08/30 07:39:13;;;;;;;;;;;18.00;99.90;;;;;;5052597;28;19999;-57
2022/08/30 07:41:39;;;;;;;;;;;18.20;99.90;;;;;;5052655;28;19916;-52
2022/08/30 07:44:06;;;;;;;;;;;18.30;99.90;;;;;;5051476;28;20010;-54
2022/08/30 07:46:31;;;;;;;;;;;18.40;99.90;;;;;;5049365;28;19916;-54
2022/08/30 07:48:58;;;;;;;;;;;18.40;99.90;;;;;;5058069;28;20365;-56
2022/08/30 07:51:25;;;;;;;;;;;18.50;99.90;;;;;;5057533;28;19982;-54
2022/08/30 07:53:51;;;;;;;;;;;18.60;99.90;;;;;;5060298;28;19985;-56
2022/08/30 07:56:16;;;;;;;;;;;18.80;99.90;;;;;;5057508;28;20389;-55
2022/08/30 07:58:42;;;;;;;;;;;19.00;99.90;;;;;;5048212;28;20011;-53
2022/08/30 08:01:09;;;;;;;;;;;19.10;99.90;;;;;;5039451;28;19913;-54
2022/08/30 08:03:35;;;;;;;;;;;19.20;99.90;;;;;;5051874;28;19940;-53
2022/08/30 08:06:04;;;;;;;;;;;18.90;99.90;;;;;;5052864;28;20381;-57
2022/08/30 08:08:30;;;;;;;;;;;18.90;99.90;;;;;;5055356;28;19913;-54
2022/08/30 08:10:55;;;;;;;;;;;19.00;99.90;;;;;;5054159;28;19927;-53
2022/08/30 08:13:22;;;;;;;;;;;19.00;99.90;;;;;;5061027;28;19934;-55
2022/08/30 08:15:48;;;;;;;;;;;19.20;99.90;;;;;;5061101;28;19913;-55
2022/08/30 08:18:13;;;;;;;;;;;19.30;99.90;;;;;;5065013;28;19913;-57
2022/08/30 08:20:39;;;;;;;;;;;19.40;99.90;;;;;;5063902;28;19912;-55
2022/08/30 08:23:04;;;;;;;;;;;19.20;99.90;;;;;;5079882;28;19924;-55
2022/08/30 08:25:30;;;;;;;;;;;19.20;99.90;;;;;;5060419;28;19963;-56
2022/08/30 08:27:56;;;;;;;;;;;19.30;99.90;;;;;;5063241;28;19921;-56
2022/08/30 08:30:22;;;;;;;;;;;19.20;99.90;;;;;;5060257;28;19917;-58
2022/08/30 08:32:48;;;;;;;;;;;19.50;99.90;;;;;;5062699;28;19991;-54
2022/08/30 08:35:16;;;;;;;;;;;19.70;99.90;;;;;;5060490;28;20254;-54
2022/08/30 08:37:41;;;;;;;;;;;19.90;99.90;;;;;;5064884;28;20498;-54
2022/08/30 08:40:08;;;;;;;;;;;20.10;99.90;;;;;;5060195;28;19956;-55
2022/08/30 08:42:42;;;;;;;;;;;20.20;99.90;;;;;;5062273;28;19999;-54
2022/08/30 08:45:12;;;;;;;;;;;20.40;99.90;;;;;;5062091;28;20019;-50
2022/08/30 08:47:38;;;;;;;;;;;20.30;99.90;;;;;;5048353;28;19913;-56
2022/08/30 08:50:06;;;;;;;;;;;20.30;99.90;;;;;;5052562;28;19927;-53
2022/08/30 08:55:39;;;;;;;;;;;20.70;99.90;;;;;;5050152;28;19953;-55
2022/08/30 08:58:04;;;;;;;;;;;20.80;99.90;;;;;;5055340;28;20011;-55
2022/08/30 09:00:30;;;;;;;;;;;20.80;99.90;;;;;;5055077;28;20021;-55
2022/08/30 09:02:57;;;;;;;;;;;20.50;99.90;;;;;;5054380;28;19909;-54
2022/08/30 09:05:27;;;;;;;;;;;20.40;99.90;;;;;;5055799;28;20336;-54
2022/08/30 09:08:03;;;;;;;;;;;20.50;99.90;;;;;;5055691;28;19915;-55
2022/08/30 09:10:31;;;;;;;;;;;20.30;99.90;;;;;;5055107;28;19954;-55
2022/08/30 09:12:56;;;;;;;;;;;20.20;99.90;;;;;;5055467;28;19916;-52
2022/08/30 09:15:24;;;;;;;;;;;20.40;99.90;;;;;;5054540;28;19916;-55
2022/08/30 09:17:49;;;;;;;;;;;20.30;99.90;;;;;;5055996;28;19955;-55
2022/08/30 09:20:23;;;;;;;;;;;20.20;99.90;;;;;;5055621;28;19912;-55
2022/08/30 09:22:48;;;;;;;;;;;20.40;99.90;;;;;;5054623;28;19909;-54
2022/08/30 09:25:22;;;;;;;;;;;20.60;99.90;;;;;;5054710;28;19965;-50
2022/08/30 09:27:49;;;;;;;;;;;20.90;99.90;;;;;;5054020;28;19954;-56
2022/08/30 09:30:16;;;;;;;;;;;20.80;99.90;;;;;;5054441;28;19948;-51
2022/08/30 09:32:54;;;;;;;;;;;20.70;99.90;;;;;;5054759;28;19962;-50
2022/08/30 09:35:22;;;;;;;;;;;20.80;99.80;;;;;;5054681;28;19909;-53
2022/08/30 09:37:56;;;;;;;;;;;20.70;99.90;;;;;;5053629;28;19913;-51
2022/08/30 09:40:32;;;;;;;;;;;20.90;99.70;;;;;;5054274;28;19962;-52
2022/08/30 09:43:00;;;;;;;;;;;21.10;99.20;;;;;;5052746;28;20281;-54
2022/08/30 09:45:30;;;;;;;;;;;21.00;99.20;;;;;;5054847;28;19971;-57
2022/08/30 09:47:56;;;;;;;;;;;21.00;99.30;;;;;;5055174;28;19909;-55
2022/08/30 09:50:24;;;;;;;;;;;20.80;99.70;;;;;;5054268;28;23957;-55
2022/08/30 09:53:08;;;;;;;;;;;20.80;99.90;;;;;;5054353;28;19913;-55
2022/08/30 09:55:40;;;;;;;;;;;20.90;99.60;;;;;;5053712;28;20327;-55
2022/08/30 09:58:11;;;;;;;;;;;21.20;99.20;;;;;;5055553;28;19908;-51
2022/08/30 10:00:41;;;;;;;;;;;21.40;98.70;;;;;;5053621;28;19995;-55
2022/08/30 10:03:15;;;;;;;;;;;21.20;98.70;;;;;;5053914;28;19971;-52
2022/08/30 10:05:59;;;;;;;;;;;20.90;98.90;;;;;;5054251;28;20435;-56
2022/08/30 10:08:30;;;;;;;;;;;21.00;98.90;;;;;;5053666;28;19919;-54
2022/08/30 10:11:09;;;;;;;;;;;21.30;98.50;;;;;;5053337;28;19956;-54
2022/08/30 10:13:55;;;;;;;;;;;21.40;98.10;;;;;;5051816;28;20416;-54
2022/08/30 10:16:21;;;;;;;;;;;21.70;97.60;;;;;;5053892;28;19932;-57
2022/08/30 10:18:58;;;;;;;;;;;21.70;97.80;;;;;;5054915;28;20288;-53
2022/08/30 10:21:46;;;;;;;;;;;21.80;97.00;;;;;;5052788;28;19909;-55
2022/08/30 10:24:13;;;;;;;;;;;21.90;96.70;;;;;;5054919;28;19919;-55
2022/08/30 10:26:49;;;;;;;;;;;21.90;96.60;;;;;;5054868;28;19913;-53
2022/08/30 10:29:23;;;;;;;;;;;22.00;96.40;;;;;;5052387;28;19960;-56
2022/08/30 10:31:52;;;;;;;;;;;21.90;96.70;;;;;;5052792;28;19909;-58
2022/08/30 10:34:24;;;;;;;;;;;22.00;96.40;;;;;;5053958;28;19916;-54
2022/08/30 10:36:54;;;;;;;;;;;22.00;96.60;;;;;;5053139;28;19909;-56
2022/08/30 10:39:25;;;;;;;;;;;21.80;96.50;;;;;;5054078;28;19944;-51
2022/08/30 10:41:53;;;;;;;;;;;22.00;96.70;;;;;;5052452;28;19917;-53
2022/08/30 10:44:23;;;;;;;;;;;22.10;96.70;;;;;;5050715;28;19927;-51
2022/08/30 10:47:01;;;;;;;;;;;22.30;96.30;;;;;;5053066;28;19909;-51
2022/08/30 10:49:28;;;;;;;;;;;22.40;96.00;;;;;;5053679;28;20565;-50
2022/08/30 10:51:59;;;;;;;;;;;22.70;95.10;;;;;;5053566;28;19996;-49
2022/08/30 10:54:37;;;;;;;;;;;22.50;95.60;;;;;;5054520;28;19924;-56
2022/08/30 10:57:03;;;;;;;;;;;22.50;95.90;;;;;;5054135;28;19909;-54
2022/08/30 10:59:29;;;;;;;;;;;22.30;95.70;;;;;;5053651;28;20059;-55
2022/08/30 11:01:55;;;;;;;;;;;22.50;95.60;;;;;;5053881;28;19916;-56
2022/08/30 11:04:20;;;;;;;;;;;22.70;94.90;;;;;;5052916;28;19916;-57
2022/08/30 11:07:09;;;;;;;;;;;22.60;94.80;;;;;;5054364;28;20008;-54
2022/08/30 11:09:37;;;;;;;;;;;22.40;94.90;;;;;;5024138;28;20003;-56
2022/08/30 11:12:09;;;;;;;;;;;22.50;95.00;;;;;;5053892;28;19932;-56
2022/08/30 11:14:38;;;;;;;;;;;22.30;94.70;;;;;;5053904;28;19921;-55
2022/08/30 11:17:04;;;;;;;;;;;22.30;95.00;;;;;;5054147;28;19909;-57
2022/08/30 11:19:37;;;;;;;;;;;22.40;95.10;;;;;;5055059;28;19923;-56
2022/08/30 11:22:34;;;;;;;;;;;22.80;94.80;;;;;;5053789;28;19912;-57
2022/08/30 11:25:00;;;;;;;;;;;23.20;94.30;;;;;;5015984;28;19917;-56
2022/08/30 11:27:43;;;;;;;;;;;23.30;93.50;;;;;;5034823;28;19963;-57
2022/08/30 11:30:24;;;;;;;;;;;23.40;93.30;;;;;;5046473;28;20431;-60
2022/08/30 11:33:24;;;;;;;;;;;23.20;93.50;;;;;;5053886;28;20289;-57
2022/08/30 11:35:54;;;;;;;;;;;23.20;94.00;;;;;;5054240;28;19916;-58
2022/08/30 11:38:39;;;;;;;;;;;23.50;93.20;;;;;;5034352;28;19909;-57
2022/08/30 11:41:05;;;;;;;;;;;23.60;93.00;;;;;;5042696;28;20003;-55
2022/08/30 11:43:34;;;;;;;;;;;23.50;93.20;;;;;;5053026;28;20438;-60
2022/08/30 11:46:18;;;;;;;;;;;23.30;93.20;;;;;;5055162;28;19913;-59
2022/08/30 11:48:53;;;;;;;;;;;23.30;93.40;;;;;;5054634;28;20119;-57
2022/08/30 11:51:36;;;;;;;;;;;23.50;93.30;;;;;;5054802;28;19912;-55
2022/08/30 11:54:11;;;;;;;;;;;23.70;92.90;;;;;;5053465;28;20344;-58
2022/08/30 11:56:48;;;;;;;;;;;23.80;92.90;;;;;;5056138;28;19921;-57
2022/08/30 11:59:16;;;;;;;;;;;23.80;92.80;;;;;;5058081;28;19987;-50
2022/08/30 12:01:43;;;;;;;;;;;23.70;92.90;;;;;;5055766;28;19913;-50
2022/08/30 12:04:24;;;;;;;;;;;23.70;92.90;;;;;;5056390;28;19916;-48
2022/08/30 12:06:55;;;;;;;;;;;23.70;92.90;;;;;;5053569;28;19938;-54
2022/08/30 12:09:24;;;;;;;;;;;23.70;92.80;;;;;;5046421;28;20035;-49
2022/08/30 12:11:52;;;;;;;;;;;23.80;92.40;;;;;;5056481;28;19920;-51
2022/08/30 12:14:41;;;;;;;;;;;23.70;92.70;;;;;;5056853;28;19915;-52
2022/08/30 12:20:17;;;;;;;;;;;23.70;93.10;;;;;;5055790;28;20007;-53
2022/08/30 12:22:44;;;;;;;;;;;23.80;92.90;;;;;;5057016;28;20373;-55
2022/08/30 12:25:32;;;;;;;;;;;24.00;92.40;;;;;;5055475;28;19921;-48
2022/08/30 12:28:13;;;;;;;;;;;24.00;92.20;;;;;;5051557;28;19909;-54
2022/08/30 12:30:39;;;;;;;;;;;23.90;92.40;;;;;;5056105;28;19920;-53
2022/08/30 12:33:08;;;;;;;;;;;23.70;92.50;;;;;;5056355;28;20392;-53
2022/08/30 12:35:34;;;;;;;;;;;23.70;92.30;;;;;;5055795;28;19943;-53
2022/08/30 12:38:01;;;;;;;;;;;23.90;92.00;;;;;;5056370;28;19913;-51
2022/08/30 12:40:29;;;;;;;;;;;23.90;92.00;;;;;;5056008;28;20428;-53
2022/08/30 12:42:59;;;;;;;;;;;24.10;92.10;;;;;;5056022;28;19913;-51
2022/08/30 12:45:30;;;;;;;;;;;24.50;91.20;;;;;;5056064;28;19929;-50
2022/08/30 12:47:58;;;;;;;;;;;24.60;90.60;;;;;;5056035;28;19913;-52
2022/08/30 12:50:32;;;;;;;;;;;24.60;90.90;;;;;;5055870;28;19959;-51
2022/08/30 12:53:03;;;;;;;;;;;24.60;90.80;;;;;;5055697;28;19991;-50
2022/08/30 12:55:30;;;;;;;;;;;24.20;91.70;;;;;;5056565;28;19951;-53
2022/08/30 12:58:09;;;;;;;;;;;24.10;92.00;;;;;;5055008;28;19913;-56
2022/08/30 13:00:42;;;;;;;;;;;24.10;91.80;;;;;;5040305;28;19920;-54
2022/08/30 13:03:31;;;;;;;;;;;23.80;92.00;;;;;;5038303;28;19915;-53
2022/08/30 13:05:57;;;;;;;;;;;23.50;92.20;;;;;;5055906;28;19916;-53
2022/08/30 13:08:35;;;;;;;;;;;23.30;92.30;;;;;;5055002;28;19962;-54
2022/08/30 13:11:00;;;;;;;;;;;23.20;92.60;;;;;;5039022;28;19984;-56
2022/08/30 13:13:26;;;;;;;;;;;23.10;93.00;;;;;;5055103;28;19952;-54
2022/08/30 13:15:51;;;;;;;;;;;23.00;93.00;;;;;;5056234;28;19917;-53
2022/08/30 13:18:23;;;;;;;;;;;23.10;93.20;;;;;;5044843;28;20123;-52
2022/08/30 13:20:49;;;;;;;;;;;23.30;92.70;;;;;;5035080;28;19932;-53
2022/08/30 13:23:21;;;;;;;;;;;23.50;92.10;;;;;;5046977;28;20380;-53
2022/08/30 13:25:47;;;;;;;;;;;23.60;92.00;;;;;;5054844;28;19913;-55
2022/08/30 13:28:13;;;;;;;;;;;23.60;92.10;;;;;;5056437;28;20051;-55
2022/08/30 13:30:39;;;;;;;;;;;23.60;92.00;;;;;;5058387;28;19916;-57
2022/08/30 13:33:04;;;;;;;;;;;23.60;92.10;;;;;;5054849;28;19923;-56
2022/08/30 13:35:31;;;;;;;;;;;23.30;92.00;;;;;;5056504;28;19944;-55
2022/08/30 13:37:58;;;;;;;;;;;23.30;92.40;;;;;;5056132;28;19913;-53
2022/08/30 13:40:24;;;;;;;;;;;23.30;92.40;;;;;;5054543;28;19919;-54
2022/08/30 13:42:50;;;;;;;;;;;23.50;92.30;;;;;;5060137;28;19913;-56
2022/08/30 13:45:17;;;;;;;;;;;23.60;92.30;;;;;;5059162;28;19916;-53
2022/08/30 13:49:16;;;;;;;9.98;7.50;;;23.70;91.70;;;;;;5161623;27;20157;-51
2022/08/30 13:51:42;;;;;;;;;;;23.60;92.20;;;;;;5128146;27;20062;-53
2022/08/30 13:54:07;;;;;;;8.63;7.57;;;24.10;91.80;;;;;;5128915;27;19942;-53
2022/08/30 13:56:33;;;;;;;8.27;6.68;;;24.50;90.40;;;;;;5129365;27;20499;-52
2022/08/30 13:58:59;;;;;;;8.98;6.80;;;24.80;90.30;;;;;;5128802;27;20505;-55
2022/08/30 14:01:26;;;;;;;8.25;7.35;;;25.00;89.90;;;;;;5128871;27;20035;-49
2022/08/30 14:03:52;;;;;;;8.32;7.53;;;25.30;89.80;;;;;;5129110;27;20027;-52
2022/08/30 14:06:18;;;;;;;9.95;7.70;;;25.60;88.40;;;;;;5128600;27;20507;-52
2022/08/30 14:08:44;;;;;;;9.57;7.65;;;25.40;87.50;;;;;;5128444;27;20044;-51
2022/08/30 14:11:12;;;;;;;14.65;7.55;;;25.30;88.40;;;;;;5128497;27;20035;-48
2022/08/30 14:13:38;;;;;;;9.80;7.47;;;25.40;88.60;;;;;;5128660;27;20150;-50
2022/08/30 14:16:06;;;;;;;10.32;7.60;;;25.60;87.30;;;;;;5128225;27;20428;-51
2022/08/30 14:18:32;;;;;;;8.40;7.32;;;25.40;87.00;;;;;;5128548;27;20050;-50
2022/08/30 14:20:59;;;;;;;15.40;8.35;;;25.90;87.20;;;;;;5128052;28;20043;-54
2022/08/30 14:23:25;;;;;;;16.70;8.48;;;26.40;87.70;;;;;;5128427;28;20036;-48
2022/08/30 14:25:52;;;;;;;13.98;7.20;;;26.40;87.20;;;;;;5128590;28;20031;-52
2022/08/30 14:28:18;;;;;;;9.15;6.95;;;26.60;84.30;;;;;;5126987;27;20019;-52